createdAt,value
2023-02-22T00:00:49.108Z,100371.66
2023-02-22T00:03:24.906Z,100372.34
2023-02-22T00:05:55.229Z,100380.03
2023-02-22T00:08:24.865Z,100367.81
2023-02-22T00:10:53.098Z,100367.81
2023-02-22T00:13:22.735Z,100365.97
2023-02-22T00:15:52.782Z,100360.97
2023-02-22T00:18:20.821Z,100356.69
2023-02-22T00:20:48.851Z,100357.78
2023-02-22T00:23:20.229Z,100358.66
2023-02-22T00:25:48.933Z,100362.25
2023-02-22T00:28:17.971Z,100362.34
2023-02-22T00:30:48.338Z,100351.28
2023-02-22T00:33:18.672Z,100353.25
2023-02-22T00:35:46.951Z,100356.97
2023-02-22T00:38:16.859Z,100363.19
2023-02-22T00:40:45.474Z,100359.84
2023-02-22T00:43:13.851Z,100357.25
2023-02-22T00:45:42.700Z,100356.72
2023-02-22T00:48:11.527Z,100355.72
2023-02-22T00:50:41.001Z,100353.00
2023-02-22T00:53:10.211Z,100359.84
2023-02-22T00:55:39.135Z,100355.47
2023-02-22T00:58:07.524Z,100348.50
2023-02-22T01:00:38.198Z,100350.16
2023-02-22T01:03:07.028Z,100352.88
2023-02-22T01:05:36.106Z,100344.38
2023-02-22T01:08:08.859Z,100332.34
2023-02-22T01:10:38.146Z,100341.75
2023-02-22T01:13:09.263Z,100334.91
2023-02-22T01:15:39.153Z,100333.91
2023-02-22T01:18:07.500Z,100337.25
2023-02-22T01:20:35.474Z,100338.09
2023-02-22T01:23:06.548Z,100335.59
2023-02-22T01:25:37.115Z,100333.13
2023-02-22T01:28:07.133Z,100335.88
2023-02-22T01:30:36.919Z,100341.97
2023-02-22T01:33:07.119Z,100336.72
2023-02-22T01:35:36.649Z,100331.50
2023-02-22T01:38:04.519Z,100334.91
2023-02-22T01:40:37.361Z,100326.09
2023-02-22T01:43:15.409Z,100323.59
2023-02-22T01:45:53.892Z,100318.34
2023-02-22T01:48:26.926Z,100319.13
2023-02-22T01:50:58.592Z,100314.66
2023-02-22T01:53:31.366Z,100305.09
2023-02-22T01:56:02.523Z,100307.72
2023-02-22T01:58:34.516Z,100305.97
2023-02-22T02:01:02.551Z,100299.13
2023-02-22T02:03:34.264Z,100293.16
2023-02-22T02:06:06.500Z,100302.63
2023-02-22T02:08:37.863Z,100298.41
2023-02-22T02:11:10.623Z,100292.47
2023-02-22T02:13:38.644Z,100288.19
2023-02-22T02:16:06.746Z,100289.84
2023-02-22T02:18:34.857Z,100278.66
2023-02-22T02:21:32.043Z,100289.13
2023-02-22T02:24:35.320Z,100284.94
2023-02-22T02:27:17.622Z,100289.38
2023-02-22T02:30:25.430Z,100281.63
2023-02-22T02:33:00.857Z,100277.28
2023-02-22T02:35:41.594Z,100281.81
2023-02-22T02:38:17.087Z,100273.31
2023-02-22T02:40:49.923Z,100275.91
2023-02-22T02:43:28.122Z,100275.09
2023-02-22T02:46:02.245Z,100274.25
2023-02-22T02:48:34.735Z,100275.44
2023-02-22T02:51:08.938Z,100278.97
2023-02-22T02:53:40.392Z,100271.94
2023-02-22T02:56:08.599Z,100271.09
2023-02-22T02:58:49.001Z,100263.50
2023-02-22T03:01:29.273Z,100268.03
2023-02-22T03:04:31.605Z,100256.78
2023-02-22T03:07:23.613Z,100253.28
2023-02-22T03:10:13.078Z,100248.97
2023-02-22T03:12:49.346Z,100257.56
2023-02-22T03:15:32.396Z,100255.06
2023-02-22T03:18:06.707Z,100261.31
2023-02-22T03:20:43.935Z,100252.03
2023-02-22T03:23:17.003Z,100255.38
2023-02-22T03:25:50.289Z,100251.03
2023-02-22T03:28:20.766Z,100256.03
2023-02-22T03:30:54.591Z,100251.03
2023-02-22T03:33:34.001Z,100245.34
2023-02-22T03:36:12.475Z,100246.41
2023-02-22T03:38:43.666Z,100248.31
2023-02-22T03:41:19.757Z,100242.47
2023-02-22T03:43:50.722Z,100239.97
2023-02-22T03:46:20.235Z,100240.84
2023-02-22T03:48:55.270Z,100240.97
2023-02-22T03:51:25.539Z,100243.81
2023-02-22T03:53:58.771Z,100241.34
2023-02-22T03:56:37.335Z,100246.59
2023-02-22T03:59:07.740Z,100249.28
2023-02-22T04:01:36.403Z,100242.47
2023-02-22T04:04:05.608Z,100253.81
2023-02-22T04:06:35.802Z,100243.66
2023-02-22T04:09:04.802Z,100249.66
2023-02-22T04:11:33.157Z,100242.16
2023-02-22T04:14:01.211Z,100249.88
2023-02-22T04:16:30.876Z,100252.50
2023-02-22T04:18:58.765Z,100253.41
2023-02-22T04:21:26.965Z,100252.31
2023-02-22T04:23:56.320Z,100244.56
2023-02-22T04:26:24.443Z,100249.97
2023-02-22T04:28:56.483Z,100252.66
2023-02-22T04:31:25.934Z,100252.59
2023-02-22T04:33:56.182Z,100249.03
2023-02-22T04:36:31.801Z,100236.97
2023-02-22T04:39:02.671Z,100246.22
2023-02-22T04:41:32.139Z,100247.06
2023-02-22T04:44:00.107Z,100246.97
2023-02-22T04:46:29.231Z,100246.88
2023-02-22T04:48:57.781Z,100244.25
2023-02-22T04:51:29.439Z,100243.41
2023-02-22T04:54:04.686Z,100245.13
2023-02-22T04:56:35.532Z,100235.75
2023-02-22T04:59:03.310Z,100243.47
2023-02-22T05:01:33.512Z,100236.66
2023-02-22T05:04:03.176Z,100232.38
2023-02-22T05:06:32.045Z,100230.72
2023-02-22T05:09:00.023Z,100230.78
2023-02-22T05:11:29.975Z,100227.41
2023-02-22T05:13:58.163Z,100221.97
2023-02-22T05:16:26.510Z,100227.13
2023-02-22T05:18:54.275Z,100227.00
2023-02-22T05:21:22.048Z,100234.66
2023-02-22T05:23:49.931Z,100227.06
2023-02-22T05:26:18.829Z,100225.41
2023-02-22T05:28:47.957Z,100229.63
2023-02-22T05:31:16.055Z,100233.09
2023-02-22T05:33:44.035Z,100229.69
2023-02-22T05:36:11.766Z,100230.41
2023-02-22T05:38:43.209Z,100227.78
2023-02-22T05:41:12.071Z,100225.94
2023-02-22T05:43:40.728Z,100226.72
2023-02-22T05:46:11.075Z,100237.94
2023-02-22T05:48:38.934Z,100231.06
2023-02-22T05:51:07.405Z,100231.94
2023-02-22T05:53:35.134Z,100224.09
2023-02-22T05:56:03.110Z,100218.97
2023-02-22T05:58:32.263Z,100231.88
2023-02-22T06:01:02.194Z,100227.50
2023-02-22T06:03:32.747Z,100220.59
2023-02-22T06:06:00.463Z,100225.75
2023-02-22T06:08:28.345Z,100227.47
2023-02-22T06:10:56.531Z,100223.16
2023-02-22T06:13:24.470Z,100223.94
2023-02-22T06:15:52.173Z,100225.63
2023-02-22T06:18:20.061Z,100224.81
2023-02-22T06:20:49.510Z,100218.88
2023-02-22T06:23:17.362Z,100225.75
2023-02-22T06:25:45.542Z,100234.38
2023-02-22T06:28:14.252Z,100231.75
2023-02-22T06:30:43.066Z,100230.03
2023-02-22T06:33:12.314Z,100228.31
2023-02-22T06:35:40.504Z,100229.19
2023-02-22T06:38:09.569Z,100226.59
2023-02-22T06:40:37.327Z,100239.53
2023-02-22T06:43:05.195Z,100243.75
2023-02-22T06:45:33.409Z,100236.03
2023-02-22T06:48:01.203Z,100233.44
2023-02-22T06:50:33.221Z,100237.81
2023-02-22T06:53:02.057Z,100243.94
2023-02-22T06:55:33.582Z,100253.38
2023-02-22T06:58:01.634Z,100249.09
2023-02-22T07:00:32.531Z,100254.84
2023-02-22T07:03:01.070Z,100254.63
2023-02-22T07:05:29.944Z,100251.00
2023-02-22T07:08:06.910Z,100263.75
2023-02-22T07:10:37.457Z,100265.31
2023-02-22T07:13:07.211Z,100264.28
2023-02-22T07:15:40.270Z,100260.84
2023-02-22T07:18:10.041Z,100268.47
2023-02-22T07:21:03.046Z,100269.19
2023-02-22T07:23:33.073Z,100267.34
2023-02-22T07:26:03.558Z,100267.25
2023-02-22T07:28:31.964Z,100264.50
2023-02-22T07:31:01.393Z,100263.50
2023-02-22T07:33:29.204Z,100262.47
2023-02-22T07:35:56.983Z,100261.38
2023-02-22T07:38:24.848Z,100259.41
2023-02-22T07:40:52.624Z,100255.81
2023-02-22T07:43:23.368Z,100252.34
2023-02-22T07:45:55.710Z,100255.63
2023-02-22T07:48:25.200Z,100250.31
2023-02-22T07:50:53.298Z,100250.97
2023-02-22T07:53:22.465Z,100249.16
2023-02-22T07:55:51.037Z,100241.22
2023-02-22T07:58:22.441Z,100244.66
2023-02-22T08:00:50.494Z,100246.25
2023-02-22T08:03:20.163Z,100250.22
2023-02-22T08:05:50.383Z,100249.28
2023-02-22T08:08:20.015Z,100242.03
2023-02-22T08:10:48.804Z,100246.94
2023-02-22T08:13:18.151Z,100250.22
2023-02-22T08:15:48.573Z,100242.44
2023-02-22T08:18:19.676Z,100247.03
2023-02-22T08:20:49.818Z,100251.38
2023-02-22T08:23:20.241Z,100250.28
2023-02-22T08:25:48.043Z,100254.28
2023-02-22T08:28:18.854Z,100252.16
2023-02-22T08:30:48.099Z,100252.53
2023-02-22T08:33:19.574Z,100247.78
2023-02-22T08:35:50.009Z,100244.81
2023-02-22T08:38:21.897Z,100245.41
2023-02-22T08:40:50.676Z,100247.47
2023-02-22T08:43:20.628Z,100248.38
2023-02-22T08:45:51.641Z,100237.66
2023-02-22T08:48:21.036Z,100237.19
2023-02-22T08:50:48.886Z,100240.38
2023-02-22T08:53:17.994Z,100245.81
2023-02-22T08:55:46.591Z,100237.84
2023-02-22T08:58:14.943Z,100238.59
2023-02-22T09:00:44.857Z,100236.88
2023-02-22T09:03:16.029Z,100237.22
2023-02-22T09:05:44.867Z,100228.00
2023-02-22T09:08:13.356Z,100229.63
2023-02-22T09:10:41.764Z,100230.13
2023-02-22T09:13:09.672Z,100233.22
2023-02-22T09:15:37.716Z,100226.97
2023-02-22T09:18:08.485Z,100222.53
2023-02-22T09:20:38.087Z,100218.63
2023-02-22T09:23:06.997Z,100216.00
2023-02-22T09:25:36.034Z,100215.03
2023-02-22T09:28:03.949Z,100213.78
2023-02-22T09:30:34.321Z,100212.16
2023-02-22T09:33:04.423Z,100209.25
2023-02-22T09:35:36.139Z,100207.63
2023-02-22T09:38:07.163Z,100205.59
2023-02-22T09:40:41.213Z,100206.31
2023-02-22T09:43:23.039Z,100203.03
2023-02-22T09:46:06.341Z,100207.88
2023-02-22T09:48:37.941Z,100194.78
2023-02-22T09:51:12.602Z,100192.63
2023-02-22T09:53:46.352Z,100198.06
2023-02-22T09:56:17.442Z,100189.16
2023-02-22T09:58:48.520Z,100187.72
2023-02-22T10:01:26.935Z,100190.28
2023-02-22T10:04:01.281Z,100191.59
2023-02-22T10:06:29.643Z,100188.03
2023-02-22T10:09:07.645Z,100187.75
2023-02-22T10:11:50.774Z,100181.25
2023-02-22T10:14:53.410Z,100180.25
2023-02-22T10:17:33.326Z,100175.97
2023-02-22T10:20:14.897Z,100180.47
2023-02-22T10:22:56.770Z,100172.72
2023-02-22T10:25:28.551Z,100173.00
2023-02-22T10:27:59.912Z,100166.97
2023-02-22T10:30:33.786Z,100169.09
2023-02-22T10:33:09.508Z,100166.06
2023-02-22T10:35:41.368Z,100166.41
2023-02-22T10:38:16.588Z,100158.41
2023-02-22T10:40:50.767Z,100157.06
2023-02-22T10:43:18.765Z,100152.47
2023-02-22T10:45:46.701Z,100157.47
2023-02-22T10:48:18.363Z,100149.13
2023-02-22T10:50:47.781Z,100158.19
2023-02-22T10:53:16.393Z,100144.44
2023-02-22T10:56:11.686Z,100149.66
2023-02-22T10:58:44.531Z,100146.50
2023-02-22T11:01:26.321Z,100141.78
2023-02-22T11:04:04.025Z,100137.81
2023-02-22T11:06:34.996Z,100129.38
2023-02-22T11:09:10.258Z,100130.63
2023-02-22T11:11:41.164Z,100126.38
2023-02-22T11:14:10.718Z,100127.47
2023-02-22T11:16:41.971Z,100126.09
2023-02-22T11:19:20.578Z,100126.69
2023-02-22T11:21:51.388Z,100123.16
2023-02-22T11:24:24.176Z,100114.50
2023-02-22T11:26:56.565Z,100113.97
2023-02-22T11:29:31.871Z,100106.09
2023-02-22T11:32:03.519Z,100102.94
2023-02-22T11:34:37.535Z,100100.13
2023-02-22T11:37:26.062Z,100100.34
2023-02-22T11:40:06.737Z,100102.81
2023-02-22T11:42:36.655Z,100090.69
2023-02-22T11:45:14.182Z,100093.38
2023-02-22T11:47:53.461Z,100082.84
2023-02-22T11:50:30.342Z,100080.38
2023-02-22T11:53:25.453Z,100080.66
2023-02-22T11:56:04.604Z,100071.38
2023-02-22T11:58:45.553Z,100067.50
2023-02-22T12:01:22.823Z,100063.31
2023-02-22T12:04:36.555Z,100062.91
2023-02-22T12:07:18.598Z,100062.84
2023-02-22T12:09:55.975Z,100053.56
2023-02-22T12:12:34.595Z,100049.88
2023-02-22T12:15:13.863Z,100040.38
2023-02-22T12:18:00.108Z,100036.50
2023-02-22T12:20:33.523Z,100029.94
2023-02-22T12:23:13.816Z,100028.75
2023-02-22T12:25:48.072Z,100022.03
2023-02-22T12:28:24.784Z,100022.47
2023-02-22T12:31:04.559Z,100018.19
2023-02-22T12:33:42.513Z,100010.00
2023-02-22T12:36:16.975Z,100005.94
2023-02-22T12:38:52.930Z,100006.56
2023-02-22T12:41:27.931Z,100003.53
2023-02-22T12:44:01.187Z,99996.25
2023-02-22T12:46:35.806Z,100002.38
2023-02-22T12:49:13.340Z,100007.00
2023-02-22T12:51:46.210Z,100005.72
2023-02-22T12:54:22.757Z,100002.13
2023-02-22T12:56:54.524Z,100007.97
2023-02-22T12:59:30.615Z,99996.44
2023-02-22T13:02:09.891Z,100003.75
2023-02-22T13:04:40.407Z,100000.50
2023-02-22T13:07:20.057Z,100004.38
2023-02-22T13:10:15.057Z,100004.91
2023-02-22T13:12:52.585Z,100002.44
2023-02-22T13:15:28.309Z,99995.16
2023-02-22T13:18:07.865Z,99987.19
2023-02-22T13:20:45.869Z,99988.88
2023-02-22T13:23:25.306Z,99985.78
2023-02-22T13:26:01.782Z,99987.91
2023-02-22T13:28:37.442Z,99982.25
2023-02-22T13:31:28.883Z,99979.69
2023-02-22T13:34:28.711Z,99981.25
2023-02-22T13:37:17.923Z,99977.25
2023-02-22T13:40:23.684Z,99983.81
2023-02-22T13:43:19.928Z,99975.34
2023-02-22T13:46:04.243Z,99970.19
2023-02-22T13:49:16.379Z,99969.47
2023-02-22T13:51:49.345Z,99968.47
2023-02-22T13:54:25.199Z,99967.94
2023-02-22T13:56:57.749Z,99961.13
2023-02-22T13:59:30.037Z,99960.91
2023-02-22T14:01:59.375Z,99953.00
2023-02-22T14:04:47.061Z,99950.47
2023-02-22T14:07:55.918Z,99949.50
2023-02-22T14:10:43.529Z,99944.59
2023-02-22T14:13:12.734Z,99937.09
2023-02-22T14:16:14.086Z,99941.16
2023-02-22T14:18:44.805Z,99931.53
2023-02-22T14:21:16.875Z,99930.31
2023-02-22T14:23:47.798Z,99933.13
2023-02-22T14:26:27.462Z,99926.38
2023-02-22T14:28:59.119Z,99930.78
2023-02-22T14:31:36.637Z,99927.81
2023-02-22T14:34:13.059Z,99928.97
2023-02-22T14:36:52.512Z,99935.41
2023-02-22T14:39:27.031Z,99935.91
2023-02-22T14:42:01.508Z,99935.41
2023-02-22T14:44:41.110Z,99939.63
2023-02-22T14:47:18.418Z,99948.41
2023-02-22T14:49:50.380Z,99946.66
2023-02-22T14:52:25.669Z,99945.72
2023-02-22T14:55:04.335Z,99938.78
2023-02-22T14:57:43.878Z,99935.69
2023-02-22T15:00:30.630Z,99937.59
2023-02-22T15:03:01.654Z,99936.06
2023-02-22T15:05:43.588Z,99938.88
2023-02-22T15:08:17.710Z,99934.63
2023-02-22T15:10:48.152Z,99939.41
2023-02-22T15:13:20.687Z,99931.00
2023-02-22T15:15:51.228Z,99942.09
2023-02-22T15:18:23.594Z,99942.56
2023-02-22T15:20:56.131Z,99939.03
2023-02-22T15:23:31.282Z,99941.72
2023-02-22T15:26:00.115Z,99940.16
2023-02-22T15:28:31.385Z,99934.91
2023-02-22T15:31:26.419Z,99936.63
2023-02-22T15:33:55.619Z,99940.63
2023-02-22T15:36:28.797Z,99941.75
2023-02-22T15:38:58.524Z,99943.31
2023-02-22T15:41:31.799Z,99947.06
2023-02-22T15:44:17.749Z,99941.81
2023-02-22T15:46:51.304Z,99943.22
2023-02-22T15:49:23.389Z,99950.75
2023-02-22T15:52:04.996Z,99947.63
2023-02-22T15:54:43.900Z,99958.84
2023-02-22T15:57:17.123Z,99960.06
2023-02-22T15:59:50.541Z,99960.88
2023-02-22T16:02:31.421Z,99963.91
2023-02-22T16:05:03.172Z,99970.13
2023-02-22T16:07:32.224Z,99974.16
2023-02-22T16:10:09.253Z,99974.72
2023-02-22T16:12:40.256Z,99964.72
2023-02-22T16:15:19.631Z,99972.53
2023-02-22T16:18:02.169Z,99975.63
2023-02-22T16:20:33.766Z,99972.47
2023-02-22T16:23:22.948Z,99965.91
2023-02-22T16:26:07.098Z,99970.13
2023-02-22T16:28:37.766Z,99970.13
2023-02-22T16:31:10.346Z,99969.38
2023-02-22T16:33:41.395Z,99972.81
2023-02-22T16:36:12.362Z,99983.59
2023-02-22T16:38:44.449Z,99981.16
2023-02-22T16:41:19.707Z,99985.00
2023-02-22T16:43:51.520Z,99981.25
2023-02-22T16:46:20.734Z,99983.66
2023-02-22T16:48:49.449Z,99987.69
2023-02-22T16:51:23.786Z,99994.97
2023-02-22T16:53:56.011Z,99999.63
2023-02-22T16:56:31.256Z,99997.19
2023-02-22T16:59:10.953Z,99996.66
2023-02-22T17:01:39.704Z,100007.41
2023-02-22T17:04:15.842Z,99999.28
2023-02-22T17:06:45.958Z,100005.97
2023-02-22T17:09:15.480Z,100010.78
2023-02-22T17:11:46.501Z,100010.22
2023-02-22T17:14:19.288Z,100010.28
2023-02-22T17:16:48.132Z,100018.34
2023-02-22T17:19:19.149Z,100016.00
2023-02-22T17:21:47.984Z,100017.03
2023-02-22T17:24:18.440Z,100032.69
2023-02-22T17:26:49.181Z,100028.69
2023-02-22T17:29:18.804Z,100031.69
2023-02-22T17:31:49.052Z,100029.78
2023-02-22T17:34:17.923Z,100032.16
2023-02-22T17:36:48.599Z,100031.09
2023-02-22T17:39:17.345Z,100032.78
2023-02-22T17:41:55.048Z,100048.44
2023-02-22T17:44:23.340Z,100041.63
2023-02-22T17:46:52.940Z,100046.38
2023-02-22T17:49:21.080Z,100043.38
2023-02-22T17:51:53.168Z,100044.88
2023-02-22T17:54:21.649Z,100051.41
2023-02-22T17:56:52.138Z,100052.94
2023-02-22T17:59:20.340Z,100052.94
2023-02-22T18:01:48.929Z,100051.75
2023-02-22T18:04:16.630Z,100055.66
2023-02-22T18:06:44.372Z,100055.84
2023-02-22T18:09:17.568Z,100049.50
2023-02-22T18:11:45.613Z,100045.97
2023-02-22T18:14:14.767Z,100060.22
2023-02-22T18:16:43.025Z,100054.38
2023-02-22T18:19:10.767Z,100051.22
2023-02-22T18:21:39.836Z,100052.38
2023-02-22T18:24:08.430Z,100047.31
2023-02-22T18:26:38.935Z,100050.19
2023-02-22T18:29:06.997Z,100045.97
2023-02-22T18:31:36.543Z,100045.09
2023-02-22T18:34:05.350Z,100046.84
2023-02-22T18:36:33.029Z,100046.16
2023-02-22T18:39:00.804Z,100046.22
2023-02-22T18:41:28.951Z,100047.31
2023-02-22T18:44:00.295Z,100041.28
2023-02-22T18:46:29.959Z,100047.47
2023-02-22T18:48:59.829Z,100047.97
2023-02-22T18:51:28.548Z,100058.53
2023-02-22T18:54:00.849Z,100055.09
2023-02-22T18:56:30.759Z,100049.78
2023-02-22T18:59:00.958Z,100048.88
2023-02-22T19:01:30.009Z,100052.13
2023-02-22T19:04:02.133Z,100043.69
2023-02-22T19:06:30.229Z,100041.09
2023-02-22T19:09:01.644Z,100038.56
2023-02-22T19:11:30.439Z,100043.75
2023-02-22T19:14:04.284Z,100034.47
2023-02-22T19:16:33.154Z,100040.75
2023-02-22T19:19:03.271Z,100040.19
2023-02-22T19:21:33.516Z,100037.59
2023-02-22T19:24:02.256Z,100036.78
2023-02-22T19:26:31.181Z,100042.97
2023-02-22T19:29:04.934Z,100043.09
2023-02-22T19:31:34.654Z,100035.50
2023-02-22T19:34:08.773Z,100039.09
2023-02-22T19:36:40.934Z,100034.66
2023-02-22T19:39:09.664Z,100041.84
2023-02-22T19:41:38.820Z,100047.09
2023-02-22T19:44:07.989Z,100045.72
2023-02-22T19:46:37.801Z,100047.53
2023-02-22T19:49:09.602Z,100048.50
2023-02-22T19:51:38.321Z,100045.03
2023-02-22T19:54:09.547Z,100049.34
2023-02-22T19:56:37.698Z,100052.78
2023-02-22T19:59:12.818Z,100048.50
2023-02-22T20:01:46.826Z,100043.31
2023-02-22T20:04:21.838Z,100038.13
2023-02-22T20:06:54.840Z,100045.19
2023-02-22T20:09:29.827Z,100040.59
2023-02-22T20:11:59.730Z,100044.03
2023-02-22T20:14:30.474Z,100044.03
2023-02-22T20:17:00.098Z,100051.22
2023-02-22T20:19:30.859Z,100052.38
2023-02-22T20:22:00.330Z,100060.44
2023-02-22T20:24:29.921Z,100060.84
2023-02-22T20:27:00.709Z,100067.31
2023-02-22T20:29:33.045Z,100064.84
2023-02-22T20:32:04.765Z,100068.38
2023-02-22T20:34:36.766Z,100068.25
2023-02-22T20:37:08.066Z,100076.88
2023-02-22T20:39:36.252Z,100077.81
2023-02-22T20:42:06.892Z,100072.84
2023-02-22T20:44:35.423Z,100071.09
2023-02-22T20:47:06.231Z,100067.44
2023-02-22T20:49:36.150Z,100063.88
2023-02-22T20:52:05.911Z,100065.63
2023-02-22T20:54:36.824Z,100064.53
2023-02-22T20:57:08.250Z,100069.56
2023-02-22T20:59:36.957Z,100064.25
2023-02-22T21:02:06.324Z,100064.13
2023-02-22T21:04:37.692Z,100064.63
2023-02-22T21:07:05.859Z,100061.63
2023-02-22T21:09:35.392Z,100065.94
2023-02-22T21:12:08.182Z,100066.47
2023-02-22T21:14:40.599Z,100067.13
2023-02-22T21:17:12.202Z,100067.00
2023-02-22T21:19:44.923Z,100070.94
2023-02-22T21:22:13.207Z,100064.56
2023-02-22T21:24:49.726Z,100065.75
2023-02-22T21:27:17.858Z,100069.84
2023-02-22T21:29:46.477Z,100066.47
2023-02-22T21:32:15.238Z,100071.53
2023-02-22T21:34:46.005Z,100069.50
2023-02-22T21:37:18.516Z,100070.50
2023-02-22T21:39:50.297Z,100064.41
2023-02-22T21:42:18.594Z,100060.88
2023-02-22T21:44:54.370Z,100062.66
2023-02-22T21:47:22.602Z,100061.81
2023-02-22T21:49:52.810Z,100063.59
2023-02-22T21:52:20.905Z,100057.56
2023-02-22T21:54:49.548Z,100065.44
2023-02-22T21:57:18.037Z,100057.72
2023-02-22T21:59:46.132Z,100054.22
2023-02-22T22:02:14.182Z,100058.50
2023-02-22T22:04:46.223Z,100049.06
2023-02-22T22:07:15.594Z,100057.56
2023-02-22T22:09:44.681Z,100055.81
2023-02-22T22:12:16.771Z,100057.56
2023-02-22T22:14:46.464Z,100056.81
2023-02-22T22:17:14.317Z,100053.38
2023-02-22T22:19:44.481Z,100053.38
2023-02-22T22:22:12.822Z,100051.53
2023-02-22T22:24:45.695Z,100045.38
2023-02-22T22:27:13.487Z,100049.44
2023-02-22T22:29:43.354Z,100049.41
2023-02-22T22:32:11.707Z,100046.81
2023-02-22T22:34:40.011Z,100047.00
2023-02-22T22:37:08.611Z,100052.19
2023-02-22T22:39:36.498Z,100054.88
2023-02-22T22:42:05.773Z,100053.94
2023-02-22T22:44:42.281Z,100058.38
2023-02-22T22:47:12.166Z,100055.81
2023-02-22T22:49:41.137Z,100054.13
2023-02-22T22:52:10.323Z,100057.66
2023-02-22T22:54:38.762Z,100066.38
2023-02-22T22:57:07.969Z,100063.59
2023-02-22T22:59:36.352Z,100064.22
2023-02-22T23:02:10.479Z,100062.31
2023-02-22T23:04:38.732Z,100062.56
2023-02-22T23:07:07.092Z,100060.25
2023-02-22T23:09:37.456Z,100069.91
2023-02-22T23:12:09.689Z,100069.06
2023-02-22T23:14:44.009Z,100074.31
2023-02-22T23:17:15.853Z,100069.06
2023-02-22T23:19:45.897Z,100067.31
2023-02-22T23:22:15.164Z,100058.69
2023-02-22T23:24:45.039Z,100058.75
2023-02-22T23:27:14.304Z,100062.06
2023-02-22T23:29:46.379Z,100066.06
2023-02-22T23:32:14.993Z,100059.41
2023-02-22T23:34:44.132Z,100067.84
2023-02-22T23:37:14.017Z,100056.84
2023-02-22T23:39:42.174Z,100062.28
2023-02-22T23:42:09.905Z,100060.72
2023-02-22T23:44:40.367Z,100059.63
2023-02-22T23:47:09.591Z,100063.06
2023-02-22T23:49:38.773Z,100060.34
2023-02-22T23:52:07.818Z,100056.84
2023-02-22T23:54:40.206Z,100055.41
2023-02-22T23:57:09.120Z,100050.41
2023-02-22T23:59:40.475Z,100049.03
